Latest Weather Observations for Moree

IDN60801

Issued at 4:04 pm EST Sunday 11 April 2021 (issued every 10 minutes, with the page automatically refreshed every 10 minutes)

About weather observations | Map of weather stations | Latest weather observations for NSW | Other Formats
Station Details ID: 053115 Name: MOREE AERO Lat: -29.49 Lon: 149.85 Height: 213.0 m
Data from the previous 72 hours. | See also: Recent months at Moree
Date/Time
EST
Temp
°C
App
Temp
°C
Dew
Point
°C
Rel
Hum
%
Delta-T
°C
Wind Press
QNH
hPa
Press
MSL
hPa
Rain since
9am
mm
Dir  Spd
km/h
Gust
km/h
Spd
kts
Gust
kts
11/04:00pm 20.4 11.8 0.3 26 9.1 SW 35 50 19 27 1014.1 1013.4 0.0
11/03:30pm 20.7 11.8 0.5 26 9.2 WSW 37 52 20 28 1014.0 1013.3 0.0
11/03:00pm 21.5 12.6 0.7 25 9.5 WSW 37 46 20 25 1013.8 1013.1 0.0
11/02:30pm 21.8 13.5 2.0 27 9.3 SW 35 44 19 24 1013.7 1013.0 0.0
11/02:00pm 21.6 14.1 4.2 32 8.5 WSW 33 41 18 22 1013.7 1013.0 0.0
11/01:30pm 21.5 14.2 4.6 33 8.4 WSW 32 39 17 21 1013.9 1013.2 0.0
11/01:02pm 21.7 14.1 3.9 31 8.7 SW 33 52 18 28 1013.9 1013.2 0.0
11/01:00pm 21.3 13.8 3.5 31 8.6 SW 32 48 17 26 1014.0 1013.3 0.0
11/12:30pm 20.7 12.7 3.9 33 8.1 SW 35 54 19 29 1014.3 1013.7 0.0
11/12:20pm 21.4 14.3 5.3 35 8.1 SW 32 50 17 27 1014.3 1013.7 0.0
11/12:00pm 21.1 13.7 4.2 33 8.3 SW 32 48 17 26 1014.7 1014.0 0.0
11/11:57am 21.1 14.1 4.2 33 8.3 SW 30 48 16 26 1014.6 1013.9 0.0
11/11:30am 21.4 14.3 5.3 35 8.1 SW 32 43 17 23 1015.0 1014.3 0.0
11/11:00am 20.9 13.9 6.1 38 7.5 SW 32 39 17 21 1015.4 1014.7 0.0
11/10:30am 20.6 14.2 6.9 41 7.0 SW 30 41 16 22 1015.5 1014.8 0.0
11/10:00am 20.0 14.6 8.0 46 6.3 SW 26 37 14 20 1015.7 1015.0 0.0
11/09:30am 18.8 12.9 7.3 47 5.9 SW 28 35 15 19 1015.7 1015.0 0.0
11/09:00am 18.3 12.6 6.8 47 5.8 SW 26 32 14 17 1015.7 1015.0 0.0
11/08:30am 17.1 13.0 7.7 54 4.8 SW 19 30 10 16 1015.5 1014.8 0.0
11/08:00am 15.5 11.9 8.3 62 3.7 SW 17 20 9 11 1015.1 1014.4 0.0
11/07:30am 13.1 9.5 8.2 72 2.5 SW 17 20 9 11 1014.8 1014.1 0.0
11/07:00am 10.8 8.1 7.5 80 1.6 SW 11 13 6 7 1014.3 1013.7 0.0
11/06:30am 9.3 6.0 6.4 82 1.4 SW 13 15 7 8 1014.0 1013.3 0.0
11/06:00am 9.4 6.1 6.3 81 1.5 SW 13 15 7 8 1013.4 1012.7 0.0
11/05:30am 9.6 6.3 6.3 80 1.5 SW 13 15 7 8 1013.0 1012.3 0.0
11/05:00am 9.8 6.5 6.5 80 1.6 WSW 13 15 7 8 1012.6 1011.9 0.0
11/04:30am 9.8 6.9 6.5 80 1.6 SW 11 13 6 7 1012.1 1011.4 0.0
11/04:00am 10.1 6.8 6.6 79 1.7 SW 13 13 7 7 1011.6 1010.9 0.0
11/03:30am 10.6 7.7 6.7 77 1.9 SW 11 11 6 6 1011.4 1010.7 0.0
11/03:00am 10.8 7.6 6.7 76 2.0 SW 13 15 7 8 1011.2 1010.5 0.0
11/02:30am 11.1 8.0 7.2 77 1.9 SW 13 13 7 7 1011.2 1010.5 0.0
11/02:00am 10.8 8.0 7.1 78 1.8 SSW 11 13 6 7 1011.2 1010.5 0.0
11/01:30am 11.4 9.2 7.7 78 1.8 SSW 9 11 5 6 1011.3 1010.6 0.0
11/01:00am 12.2 10.5 8.5 78 1.9 SSW 7 9 4 5 1011.3 1010.6 0.0
11/12:30am 12.4 10.8 8.7 78 1.9 SSW 7 7 4 4 1011.3 1010.6 0.0
11/12:00am 13.0 11.4 8.7 75 2.2 SSW 7 7 4 4 1011.5 1010.8 0.0
 
Date/Time
EST
Temp
°C
App
Temp
°C
Dew
Point
°C
Rel
Hum
%
Delta-T
°C
Wind Press
QNH
hPa
Press
MSL
hPa
Rain since
9am
mm
Dir  Spd
km/h
Gust
km/h
Spd
kts
Gust
kts
10/11:30pm 13.4 12.0 8.7 73 2.4 SSW 6 7 3 4 1011.5 1010.8 0.0
10/11:00pm 14.2 12.7 9.0 71 2.7 SSW 7 7 4 4 1011.3 1010.6 0.0
10/10:30pm 15.0 12.8 9.4 69 2.9 SW 11 13 6 7 1011.3 1010.6 0.0
10/10:00pm 15.7 13.3 10.2 70 2.9 WSW 13 15 7 8 1011.4 1010.7 0.0
10/09:30pm 16.6 14.4 10.7 68 3.2 WSW 13 17 7 9 1011.2 1010.5 0.0
10/09:00pm 17.4 14.8 10.8 65 3.6 W 15 19 8 10 1010.9 1010.2 0.0
10/08:30pm 17.9 15.4 11.2 65 3.7 WNW 15 17 8 9 1010.9 1010.2 0.0
10/08:00pm 17.4 14.8 10.8 65 3.6 W 15 17 8 9 1010.5 1009.8 0.0
10/07:30pm 18.0 15.5 10.9 63 3.9 W 15 17 8 9 1010.3 1009.6 0.0
10/07:00pm 18.8 16.3 10.9 60 4.3 W 15 15 8 8 1010.2 1009.5 0.0
10/06:30pm 19.7 17.5 10.9 57 4.8 W 13 15 7 8 1010.0 1009.2 0.0
10/06:00pm 20.0 17.3 10.4 54 5.3 W 15 17 8 9 1009.8 1009.0 0.0
10/05:30pm 21.2 17.5 10.1 49 6.1 W 20 26 11 14 1009.3 1008.6 0.0
10/05:00pm 21.9 18.7 9.8 46 6.6 W 17 24 9 13 1008.8 1008.1 0.0
10/04:30pm 22.2 18.4 9.7 45 6.8 WSW 20 28 11 15 1008.7 1008.0 0.0
10/04:00pm 22.2 18.2 10.4 47 6.5 WSW 22 28 12 15 1008.9 1008.2 0.0
10/03:30pm 22.5 19.0 10.9 48 6.5 WSW 20 28 11 15 1008.6 1007.9 0.0
10/03:00pm 23.2 18.8 10.3 44 7.2 WSW 24 30 13 16 1008.6 1007.9 0.0
10/02:30pm 23.9 18.8 9.1 39 8.1 WSW 26 35 14 19 1008.5 1007.8 0.0
10/02:00pm 24.4 19.2 8.8 37 8.5 WSW 26 33 14 18 1008.7 1008.0 0.0
10/01:30pm 24.5 18.3 8.0 35 8.8 WSW 30 37 16 20 1008.9 1008.2 0.0
10/01:00pm 25.0 20.5 8.5 35 9.0 W 22 28 12 15 1008.7 1008.0 0.0
10/12:30pm 25.6 20.0 8.6 34 9.3 SW 28 35 15 19 1009.1 1008.4 0.0
10/12:00pm 26.6 21.7 8.6 32 9.9 WSW 24 35 13 19 1009.4 1008.7 0.0
10/11:30am 27.7 23.6 10.0 33 10.0 SW 22 32 12 17 1009.8 1009.0 0.0
10/11:00am 27.4 26.0 11.0 36 9.4 SSW 9 15 5 8 1010.2 1009.5 0.0
10/10:30am 25.5 23.2 11.7 42 7.9 S 15 20 8 11 1010.4 1009.7 0.0
10/10:00am 24.4 22.5 11.7 45 7.3 S 13 15 7 8 1010.7 1010.0 0.0
10/09:30am 23.5 20.5 11.9 48 6.6 S 19 24 10 13 1010.9 1010.2 0.0
10/09:00am 21.1 17.4 11.4 54 5.4 SSW 22 28 12 15 1011.0 1010.3 0.0
10/08:30am 19.9 17.6 11.9 60 4.5 SSW 15 19 8 10 1010.7 1010.0 0.0
10/08:00am 18.5 15.4 12.3 67 3.5 SW 20 26 11 14 1010.3 1009.6 0.0
10/07:30am 17.2 17.5 13.5 79 2.1 SW 4 9 2 5 1009.4 1008.7 0.0
10/07:00am 15.9 17.1 13.9 88 1.1 CALM 0 0 0 0 1008.7 1008.0 0.0
10/06:30am 14.2 13.7 12.2 88 1.1 NNE 6 7 3 4 1008.2 1007.5 0.0
10/06:00am 13.2 12.2 11.1 87 1.1 NNE 7 9 4 5 1007.7 1007.0 0.0
10/05:30am 14.4 14.3 12.1 86 1.3 NE 4 7 2 4 1007.7 1007.0 0.0
10/05:00am 14.5 15.0 11.7 83 1.5 CALM 0 0 0 0 1007.3 1006.6 0.0
10/04:30am 15.4 16.0 11.8 79 2.0 CALM 0 0 0 0 1007.0 1006.3 0.0
10/04:00am 15.7 16.0 12.1 79 2.0 NNE 2 6 1 3 1007.1 1006.4 0.0
10/03:30am 16.0 14.7 12.4 79 2.0 NE 11 11 6 6 1006.8 1006.1 0.0
10/03:00am 16.1 15.9 11.9 76 2.3 E 4 7 2 4 1006.9 1006.2 0.0
10/02:30am 16.9 16.6 11.6 71 2.9 SSE 4 9 2 5 1007.1 1006.4 0.0
10/02:00am 19.2 18.2 10.2 56 4.9 NW 6 9 3 5 1007.2 1006.5 0.0
10/01:30am 19.8 18.4 11.0 57 4.9 NNW 9 11 5 6 1007.3 1006.6 0.0
10/01:00am 19.8 17.5 10.5 55 5.1 NW 13 13 7 7 1007.5 1006.8 0.0
10/12:30am 19.5 17.8 11.3 59 4.5 NNW 11 13 6 7 1007.6 1006.9 0.0
10/12:00am 19.2 17.6 11.7 62 4.2 NNW 11 13 6 7 1007.6 1006.9 0.0
 
Date/Time
EST
Temp
°C
App
Temp
°C
Dew
Point
°C
Rel
Hum
%
Delta-T
°C
Wind Press
QNH
hPa
Press
MSL
hPa
Rain since
9am
mm
Dir  Spd
km/h
Gust
km/h
Spd
kts
Gust
kts
09/11:30pm 19.0 17.9 11.8 63 4.0 NNW 9 11 5 6 1007.6 1006.9 0.0
09/11:00pm 19.4 18.2 11.7 61 4.3 N 9 11 5 6 1007.7 1007.0 0.0
09/10:30pm 19.1 17.2 11.7 62 4.1 NNW 13 15 7 8 1008.0 1007.3 0.0
09/10:00pm 20.1 18.0 11.3 57 4.9 NNW 13 13 7 7 1008.3 1007.6 0.0
09/09:30pm 20.8 19.0 10.9 53 5.5 NNW 11 13 6 7 1008.3 1007.6 0.0
09/09:00pm 21.4 19.1 10.6 50 6.0 NW 13 13 7 7 1008.1 1007.4 0.0
09/08:30pm 22.3 20.4 10.5 47 6.5 NW 11 13 6 7 1008.1 1007.4 0.0
09/08:00pm 22.2 20.1 11.0 49 6.3 NW 13 15 7 8 1007.9 1007.2 0.0
09/07:30pm 21.7 19.8 10.5 49 6.2 NW 11 15 6 8 1007.7 1007.0 0.0
09/07:00pm 23.4 21.5 10.5 44 7.2 WNW 11 13 6 7 1007.5 1006.8 0.0
09/06:30pm 24.1 22.1 10.0 41 7.8 WNW 11 13 6 7 1007.3 1006.6 0.0
09/06:00pm 25.6 23.0 9.4 36 9.0 W 13 17 7 9 1007.0 1006.3 0.0
09/05:30pm 28.1 24.8 9.4 31 10.5 W 17 22 9 12 1006.8 1006.1 0.0
09/05:00pm 29.0 25.0 9.2 29 11.1 WSW 20 28 11 15 1006.6 1005.9 0.0
09/04:30pm 29.7 26.0 10.3 30 11.1 WSW 20 32 11 17 1006.4 1005.7 0.0
09/04:00pm 30.0 25.5 10.0 29 11.4 W 24 33 13 18 1006.3 1005.6 0.0
09/03:30pm 30.3 25.2 9.2 27 11.9 WSW 26 39 14 21 1006.5 1005.8 0.0
09/03:00pm 30.3 25.7 9.8 28 11.7 W 24 35 13 19 1006.7 1006.0 0.0
09/02:30pm 30.3 26.6 10.3 29 11.5 SW 20 32 11 17 1006.8 1006.1 0.0
09/02:00pm 28.7 25.5 9.9 31 10.7 SW 17 30 9 16 1006.8 1006.1 0.0
09/01:30pm 29.2 24.9 9.3 29 11.2 WSW 22 30 12 16 1007.4 1006.7 0.0
09/01:00pm 30.5 27.7 13.3 35 10.4 WSW 20 32 11 17 1007.8 1007.1 0.0
09/12:30pm 29.5 25.3 11.1 32 10.7 WSW 24 33 13 18 1008.3 1007.6 0.0
09/12:00pm 28.9 26.1 11.5 34 10.1 WSW 17 30 9 16 1008.8 1008.1 0.0
09/11:30am 28.6 25.3 11.6 34 9.9 WSW 20 30 11 16 1009.2 1008.5 0.0
09/11:00am 27.9 25.3 11.9 37 9.3 WSW 17 28 9 15 1009.9 1009.1 0.0
09/10:30am 27.5 26.5 14.5 45 7.9 W 13 20 7 11 1010.1 1009.3 0.0
09/10:00am 26.8 26.8 15.2 49 7.1 NW 9 15 5 8 1010.3 1009.6 0.0
09/09:30am 25.1 25.3 15.7 56 5.8 NNW 9 13 5 7 1010.4 1009.7 0.0
09/09:00am 23.4 23.0 15.2 60 5.0 NNE 11 17 6 9 1010.5 1009.8 0.0
09/08:30am 22.2 21.8 15.1 64 4.3 NE 11 15 6 8 1010.5 1009.8 0.0
09/08:00am 20.0 19.4 14.6 71 3.2 NE 11 11 6 6 1010.3 1009.6 0.0
09/07:30am 18.6 18.3 14.3 76 2.5 NE 9 11 5 6 1009.8 1009.0 0.0
09/07:00am 16.7 15.4 13.6 82 1.8 NE 13 13 7 7 1009.4 1008.7 0.0
09/06:30am 15.3 14.2 13.2 87 1.2 NE 11 13 6 7 1009.2 1008.5 0.0
09/06:00am 15.2 13.3 13.1 87 1.2 ENE 15 19 8 10 1009.0 1008.3 0.0
09/05:30am 14.9 12.9 12.8 87 1.2 ENE 15 19 8 10 1008.9 1008.2 0.0
09/05:00am 15.1 13.9 12.8 86 1.3 ENE 11 15 6 8 1008.8 1008.1 0.0
09/04:30am 15.2 15.6 12.5 84 1.5 NE 2 7 1 4 1008.8 1008.1 0.0
09/04:00am 15.3 16.1 12.6 84 1.5 CALM 0 0 0 0 1008.6 1007.9 0.0
09/03:30am 15.7 16.2 12.8 83 1.6 E 2 9 1 5 1008.5 1007.8 0.0
09/03:00am 15.4 15.0 12.3 82 1.7 E 6 7 3 4 1008.6 1007.9 0.0
09/02:30am 16.3 15.9 12.5 78 2.1 SE 6 9 3 5 1008.8 1008.1 0.0
09/02:00am 15.7 16.2 11.7 77 2.2 CALM 0 0 0 0 1008.9 1008.2 0.0
09/01:30am 16.2 15.5 12.0 76 2.3 WSW 7 7 4 4 1008.9 1008.2 0.0
09/01:00am 16.6 16.0 12.4 76 2.3 SW 7 11 4 6 1009.2 1008.5 0.0
09/12:30am 16.8 16.1 12.1 74 2.6 S 7 7 4 4 1009.3 1008.6 0.0
09/12:00am 17.0 17.7 12.1 73 2.7 CALM 0 0 0 0 1009.3 1008.6 0.0
 
Date/Time
EST
Temp
°C
App
Temp
°C
Dew
Point
°C
Rel
Hum
%
Delta-T
°C
Wind Press
QNH
hPa
Press
MSL
hPa
Rain since
9am
mm
Dir  Spd
km/h
Gust
km/h
Spd
kts
Gust
kts
08/11:30pm 17.3 17.9 12.0 71 2.9 CALM 0 0 0 0 1009.3 1008.6 0.0
08/11:00pm 17.5 18.2 12.2 71 3.0 CALM 0 0 0 0 1009.4 1008.7 0.0
08/10:30pm 17.9 18.6 12.1 69 3.2 CALM 0 0 0 0 1009.4 1008.7 0.0
08/10:00pm 18.2 18.8 12.0 67 3.5 CALM 0 0 0 0 1009.6 1008.8 0.0
08/09:30pm 18.6 19.2 11.9 65 3.7 CALM 0 0 0 0 1009.8 1009.0 0.0
08/09:00pm 19.0 18.2 11.8 63 4.0 SW 7 9 4 5 1009.7 1008.9 0.0
08/08:30pm 19.6 18.7 11.4 59 4.6 SSW 7 7 4 4 1009.3 1008.6 0.0
08/08:00pm 20.5 18.9 11.7 57 4.9 SW 11 13 6 7 1009.2 1008.5 0.0
08/07:30pm 21.9 19.9 11.6 52 5.8 SW 13 17 7 9 1009.1 1008.4 0.0
08/07:00pm 22.7 20.3 11.4 49 6.4 SW 15 17 8 9 1008.8 1008.1 0.0
08/06:30pm 24.0 21.2 11.3 45 7.2 SW 17 17 9 9 1008.3 1007.6 0.0
08/06:00pm 25.0 22.0 10.8 41 8.0 SW 17 22 9 12 1007.9 1007.2 0.0
08/05:30pm 26.7 23.2 10.8 37 9.0 SW 20 26 11 14 1007.6 1006.9 0.0
08/05:00pm 27.7 23.9 11.3 36 9.5 SW 22 28 12 15 1007.6 1006.9 0.0
08/04:30pm 28.2 23.8 10.4 33 10.1 WSW 24 32 13 17 1007.6 1006.9 0.0

Other formats

Comma delimited format used in spreadsheet applications
http://www.bom.gov.au/fwo/IDN60801/IDN60801.95527.axf

JavaScript Object Notation format (JSON) in row-major order
http://www.bom.gov.au/fwo/IDN60801/IDN60801.95527.json

Data quality

Most of these data are generated automatically and are frequently updated. Quality checks on data are not normally performed. It is possible for incorrect values to appear. Refer to information at About Latest Weather Observations and please check the disclaimer before using these data.